Mt Champion Express — A8QN4 — position and weather

sailwx.info

Track history (hours):
 
Tides and Currents Weather Stations Pressure Air Temp Water Temp Dewpoint Dewpoint Depression Visibility Wind Speed Wind Dir Waves Ship Positions

Mt Champion Express

Last reported at 2015-Feb-19 12:27 UTC. Time now 2015-Mar-01 16:40 UTC.
Position N 37°17' W 029°08'.
Warning: this ship's position is 10 days out of date.

Length 192 m; draft 7 m.

Type: Tanker. MMSI: 636013968.

Date/timePositionNaut miles runAvg speedWind from/ knotsBaromVisibWave heightAir tempDewpointWater temp
2015-Feb-19 12:27N 37°17' W 029°08'1011.0
2015-Feb-19 11:33N 37°22' W 028°57'1111.1
2015-Feb-19 10:33N 37°28' W 028°45'1111.0
2015-Feb-19 09:33N 37°34' W 028°34'1110.9
2015-Feb-19 08:33N 37°41' W 028°23'1110.8
2015-Feb-19 07:33N 37°47' W 028°12'1110.9
2015-Feb-19 06:33N 37°53' W 028°00'1110.6
2015-Feb-19 05:33N 37°59' W 027°49'1110.6
2015-Feb-19 04:33N 38°04' W 027°38'1111.0
2015-Feb-19 03:33N 38°11' W 027°26'1111.1
2015-Feb-19 02:33N 38°17' W 027°14'2410.9
2015-Feb-19 00:22N 38°30' W 026°49'1310.9
2015-Feb-18 23:10N 38°38' W 026°35'1011.4
2015-Feb-18 22:19N 38°43' W 026°25'911.4
2015-Feb-18 21:32N 38°48' W 026°15'  
2015-Feb-13 14:11N 51°02' E 001°27'710.9
2015-Feb-13 13:33N 51°07' E 001°35'1111.5
2015-Feb-13 12:33N 51°15' E 001°47'1111.3
2015-Feb-13 11:33N 51°24' E 001°59'1211.0
2015-Feb-13 10:28N 51°20' E 002°17'1010.8
2015-Feb-13 09:33N 51°23' E 002°32'1010.0
2015-Feb-13 08:33N 51°22' E 002°48'10 9.8
2015-Feb-13 07:33N 51°25' E 003°03'19 9.4
2015-Feb-13 05:33N 51°26' E 003°33'7 6.6
2015-Feb-13 04:33N 51°23' E 003°43'5 5.1
2015-Feb-13 03:34N 51°20' E 003°49'2 1.6
2015-Feb-13 02:33N 51°18' E 003°50'2 1.8
2015-Feb-13 01:30N 51°16' E 003°51'0 0.0
2015-Feb-13 00:33N 51°16' E 003°51'0 0.0
2015-Feb-12 23:09N 51°16' E 003°51'0 0.0
2015-Feb-12 22:27N 51°16' E 003°51'0 0.0
2015-Feb-12 21:15N 51°16' E 003°51'0 0.0
2015-Feb-12 20:21N 51°16' E 003°51'0 0.0
2015-Feb-12 19:15N 51°16' E 003°51'0 0.0
2015-Feb-12 18:33N 51°16' E 003°51'0 0.0
2015-Feb-12 15:33N 51°16' E 003°51'0 0.0
2015-Feb-12 13:27N 51°16' E 003°51'0 0.0
2015-Feb-12 11:33N 51°16' E 003°51'0 0.0
2015-Feb-12 10:27N 51°16' E 003°51'0 0.0
2015-Feb-12 09:33N 51°16' E 003°51'0 0.0
2015-Feb-12 08:12N 51°16' E 003°51'0 0.0
2015-Feb-12 07:27N 51°16' E 003°51'0 0.0
2015-Feb-12 06:27N 51°16' E 003°51'0 0.0
2015-Feb-12 05:27N 51°16' E 003°51'0 0.0
2015-Feb-12 03:33N 51°16' E 003°51'0 0.0
2015-Feb-12 02:33N 51°16' E 003°51'0 0.4
2015-Feb-12 01:33N 51°17' E 003°50'3 3.1
2015-Feb-12 00:33N 51°20' E 003°49'3 2.6
2015-Feb-11 23:34N 51°22' E 003°46'8 7.5
2015-Feb-11 22:33N 51°26' E 003°36'7 7.5
2015-Feb-11 21:34N 51°24' E 003°24'12 8.8
2015-Feb-11 20:10N 51°24' E 003°05'6 9.9
2015-Feb-11 19:33N 51°22' E 002°55'1010.1
2015-Feb-11 18:32N 51°22' E 002°39'4 4.2
2015-Feb-11 17:33N 51°26' E 002°37'0 0.3
2015-Feb-11 16:27N 51°26' E 002°37'0 0.1
2015-Feb-11 15:27N 51°25' E 002°37'0 0.1
2015-Feb-11 14:24N 51°25' E 002°37'0 0.0
2015-Feb-11 11:24N 51°25' E 002°37'0 0.1
2015-Feb-11 10:21N 51°25' E 002°37'0 0.1
2015-Feb-11 09:12N 51°26' E 002°37'0 0.1
2015-Feb-11 08:21N 51°26' E 002°37'0 0.0
2015-Feb-11 07:33N 51°26' E 002°37'0 0.0
2015-Feb-11 06:12N 51°26' E 002°37'0 0.0
2015-Feb-11 05:30N 51°26' E 002°37'0 0.0
2015-Feb-11 04:33N 51°26' E 002°37'0 0.1
2015-Feb-11 03:30N 51°26' E 002°37'0 0.1
2015-Feb-11 01:21N 51°25' E 002°37'0 0.0
2015-Feb-11 00:33N 51°25' E 002°37'0 0.0
2015-Feb-10 23:21N 51°25' E 002°37'0 0.1
2015-Feb-10 20:33N 51°26' E 002°37'0 0.1
2015-Feb-10 19:27N 51°26' E 002°37'0 0.0
2015-Feb-10 18:15N 51°26' E 002°37'0 0.1
2015-Feb-10 17:33N 51°26' E 002°37'0 0.0
2015-Feb-10 16:27N 51°26' E 002°37'0 0.0
2015-Feb-10 15:33N 51°26' E 002°37'0 0.2
2015-Feb-10 14:06N 51°25' E 002°37'0 0.0
2015-Feb-10 12:24N 51°25' E 002°37'0 0.0
2015-Feb-10 11:12N 51°25' E 002°37'0 0.0
2015-Feb-10 10:33N 51°25' E 002°37'0 0.0
2015-Feb-10 09:33N 51°25' E 002°37'0 0.1
2015-Feb-10 08:33N 51°25' E 002°37'0 0.2
2015-Feb-10 07:33N 51°26' E 002°37'0 0.0
2015-Feb-10 06:33N 51°26' E 002°37'0 0.0
2015-Feb-10 05:30N 51°26' E 002°37'0 0.0
2015-Feb-10 04:30N 51°26' E 002°37'0 0.0
2015-Feb-10 03:33N 51°26' E 002°37'0 0.3
2015-Feb-10 02:33N 51°25' E 002°37'0 0.0
2015-Feb-10 01:33N 51°25' E 002°37'0 0.1
2015-Feb-10 00:33N 51°25' E 002°37'0 0.0
2015-Feb-09 23:21N 51°25' E 002°37'0 0.1
2015-Feb-09 22:33N 51°25' E 002°37'5 5.2
2015-Feb-09 21:33N 51°22' E 002°30'1210.8
2015-Feb-09 20:26N 51°18' E 002°12'910.2
2015-Feb-09 19:34N 51°22' E 001°60'1110.4
2015-Feb-09 18:30N 51°32' E 002°07'  
Track history (hours):
 
Tides and Currents Weather Stations Pressure Air Temp Water Temp Dewpoint Dewpoint Depression Visibility Wind Speed Wind Dir Waves Ship Positions

Mt Champion Express

Last reported at 2015-Feb-19 12:27 UTC. Time now 2015-Mar-01 16:40 UTC.
Position N 37°17' W 029°08'.
Warning: this ship's position is 10 days out of date.

Length 192 m; draft 7 m.

Type: Tanker. MMSI: 636013968.

Date/timePositionNaut miles runAvg speedWind from/ knotsBaromVisibWave heightAir tempDewpointWater temp
2015-Feb-19 12:27N 37°17' W 029°08'1011.0
2015-Feb-19 11:33N 37°22' W 028°57'1111.1
2015-Feb-19 10:33N 37°28' W 028°45'1111.0
2015-Feb-19 09:33N 37°34' W 028°34'1110.9
2015-Feb-19 08:33N 37°41' W 028°23'1110.8
2015-Feb-19 07:33N 37°47' W 028°12'1110.9
2015-Feb-19 06:33N 37°53' W 028°00'1110.6
2015-Feb-19 05:33N 37°59' W 027°49'1110.6
2015-Feb-19 04:33N 38°04' W 027°38'1111.0
2015-Feb-19 03:33N 38°11' W 027°26'1111.1
2015-Feb-19 02:33N 38°17' W 027°14'2410.9
2015-Feb-19 00:22N 38°30' W 026°49'1310.9
2015-Feb-18 23:10N 38°38' W 026°35'1011.4
2015-Feb-18 22:19N 38°43' W 026°25'911.4
2015-Feb-18 21:32N 38°48' W 026°15'  
2015-Feb-13 14:11N 51°02' E 001°27'710.9
2015-Feb-13 13:33N 51°07' E 001°35'1111.5
2015-Feb-13 12:33N 51°15' E 001°47'1111.3
2015-Feb-13 11:33N 51°24' E 001°59'1211.0
2015-Feb-13 10:28N 51°20' E 002°17'1010.8
2015-Feb-13 09:33N 51°23' E 002°32'1010.0
2015-Feb-13 08:33N 51°22' E 002°48'10 9.8
2015-Feb-13 07:33N 51°25' E 003°03'19 9.4
2015-Feb-13 05:33N 51°26' E 003°33'7 6.6
2015-Feb-13 04:33N 51°23' E 003°43'5 5.1
2015-Feb-13 03:34N 51°20' E 003°49'2 1.6
2015-Feb-13 02:33N 51°18' E 003°50'2 1.8
2015-Feb-13 01:30N 51°16' E 003°51'0 0.0
2015-Feb-13 00:33N 51°16' E 003°51'0 0.0
2015-Feb-12 23:09N 51°16' E 003°51'0 0.0
2015-Feb-12 22:27N 51°16' E 003°51'0 0.0
2015-Feb-12 21:15N 51°16' E 003°51'0 0.0
2015-Feb-12 20:21N 51°16' E 003°51'0 0.0
2015-Feb-12 19:15N 51°16' E 003°51'0 0.0
2015-Feb-12 18:33N 51°16' E 003°51'0 0.0
2015-Feb-12 15:33N 51°16' E 003°51'0 0.0
2015-Feb-12 13:27N 51°16' E 003°51'0 0.0
2015-Feb-12 11:33N 51°16' E 003°51'0 0.0
2015-Feb-12 10:27N 51°16' E 003°51'0 0.0
2015-Feb-12 09:33N 51°16' E 003°51'0 0.0
2015-Feb-12 08:12N 51°16' E 003°51'0 0.0
2015-Feb-12 07:27N 51°16' E 003°51'0 0.0
2015-Feb-12 06:27N 51°16' E 003°51'0 0.0
2015-Feb-12 05:27N 51°16' E 003°51'0 0.0
2015-Feb-12 03:33N 51°16' E 003°51'0 0.0
2015-Feb-12 02:33N 51°16' E 003°51'0 0.4
2015-Feb-12 01:33N 51°17' E 003°50'3 3.1
2015-Feb-12 00:33N 51°20' E 003°49'3 2.6
2015-Feb-11 23:34N 51°22' E 003°46'8 7.5
2015-Feb-11 22:33N 51°26' E 003°36'7 7.5
2015-Feb-11 21:34N 51°24' E 003°24'12 8.8
2015-Feb-11 20:10N 51°24' E 003°05'6 9.9
2015-Feb-11 19:33N 51°22' E 002°55'1010.1
2015-Feb-11 18:32N 51°22' E 002°39'4 4.2
2015-Feb-11 17:33N 51°26' E 002°37'0 0.3
2015-Feb-11 16:27N 51°26' E 002°37'0 0.1
2015-Feb-11 15:27N 51°25' E 002°37'0 0.1
2015-Feb-11 14:24N 51°25' E 002°37'0 0.0
2015-Feb-11 11:24N 51°25' E 002°37'0 0.1
2015-Feb-11 10:21N 51°25' E 002°37'0 0.1
2015-Feb-11 09:12N 51°26' E 002°37'0 0.1
2015-Feb-11 08:21N 51°26' E 002°37'0 0.0
2015-Feb-11 07:33N 51°26' E 002°37'0 0.0
2015-Feb-11 06:12N 51°26' E 002°37'0 0.0
2015-Feb-11 05:30N 51°26' E 002°37'0 0.0
2015-Feb-11 04:33N 51°26' E 002°37'0 0.1
2015-Feb-11 03:30N 51°26' E 002°37'0 0.1
2015-Feb-11 01:21N 51°25' E 002°37'0 0.0
2015-Feb-11 00:33N 51°25' E 002°37'0 0.0
2015-Feb-10 23:21N 51°25' E 002°37'0 0.1
2015-Feb-10 20:33N 51°26' E 002°37'0 0.1
2015-Feb-10 19:27N 51°26' E 002°37'0 0.0
2015-Feb-10 18:15N 51°26' E 002°37'0 0.1
2015-Feb-10 17:33N 51°26' E 002°37'0 0.0
2015-Feb-10 16:27N 51°26' E 002°37'0 0.0
2015-Feb-10 15:33N 51°26' E 002°37'0 0.2
2015-Feb-10 14:06N 51°25' E 002°37'0 0.0
2015-Feb-10 12:24N 51°25' E 002°37'0 0.0
2015-Feb-10 11:12N 51°25' E 002°37'0 0.0
2015-Feb-10 10:33N 51°25' E 002°37'0 0.0
2015-Feb-10 09:33N 51°25' E 002°37'0 0.1
2015-Feb-10 08:33N 51°25' E 002°37'0 0.2
2015-Feb-10 07:33N 51°26' E 002°37'0 0.0
2015-Feb-10 06:33N 51°26' E 002°37'0 0.0
2015-Feb-10 05:30N 51°26' E 002°37'0 0.0
2015-Feb-10 04:30N 51°26' E 002°37'0 0.0
2015-Feb-10 03:33N 51°26' E 002°37'0 0.3
2015-Feb-10 02:33N 51°25' E 002°37'0 0.0
2015-Feb-10 01:33N 51°25' E 002°37'0 0.1
2015-Feb-10 00:33N 51°25' E 002°37'0 0.0
2015-Feb-09 23:21N 51°25' E 002°37'0 0.1
2015-Feb-09 22:33N 51°25' E 002°37'5 5.2
2015-Feb-09 21:33N 51°22' E 002°30'1210.8
2015-Feb-09 20:26N 51°18' E 002°12'910.2
2015-Feb-09 19:34N 51°22' E 001°60'1110.4
2015-Feb-09 18:30N 51°32' E 002°07'  

Dump ship's entire track history